Sutter Island, California
Current Conditions -  °F | °C
As of 3:53 PM on Saturday 22 Nov 2014 (Local Time) from KSAC Reporting Station
Scattered Clouds Scattered Clouds  
Wind Chill: 60°   Ceiling: Unl
Heat Index: 60°   Visibility: 7mi
Dew Point: 55°   Wind: 7mph
Humidity: 83%   Direction: 130°SE
Pressure: 30.12"   Gusts: NA
Location:  38.3168°N, 121.532°W
Report Text: KSAC 222353Z 13006KT 7SM SCT011 16/13 A3012 RMK AO2 SLP200 60001 T01560128 10161 20117 53010
Loading
Personal Weather Stations






























Interactive Weather Map New forecast layout! Learn more

10-Day Weather Forecast

Advertisements
Track Severe Weather on mobile